createdAt,value
2023-02-05T00:01:35.391Z,3.70
2023-02-05T00:04:02.809Z,3.80
2023-02-05T00:06:29.882Z,3.80
2023-02-05T00:08:58.145Z,3.90
2023-02-05T00:11:26.414Z,3.70
2023-02-05T00:13:53.789Z,3.60
2023-02-05T00:16:22.547Z,3.60
2023-02-05T00:18:49.976Z,3.80
2023-02-05T00:21:18.601Z,3.70
2023-02-05T00:23:45.847Z,3.70
2023-02-05T00:26:15.917Z,3.80
2023-02-05T00:28:43.161Z,3.80
2023-02-05T00:31:12.748Z,4.00
2023-02-05T00:33:40.310Z,3.70
2023-02-05T00:36:08.524Z,3.50
2023-02-05T00:38:36.227Z,3.40
2023-02-05T00:41:03.514Z,3.30
2023-02-05T00:43:30.730Z,3.30
2023-02-05T00:45:57.585Z,3.20
2023-02-05T00:48:24.512Z,3.20
2023-02-05T00:50:52.736Z,3.20
2023-02-05T00:53:20.516Z,3.10
2023-02-05T00:55:47.338Z,3.20
2023-02-05T00:58:14.265Z,3.20
2023-02-05T01:00:41.206Z,3.30
2023-02-05T01:03:08.710Z,3.30
2023-02-05T01:05:37.396Z,3.40
2023-02-05T01:08:05.855Z,3.50
2023-02-05T01:10:33.663Z,3.50
2023-02-05T01:13:00.421Z,3.50
2023-02-05T01:15:27.313Z,3.50
2023-02-05T01:17:54.258Z,3.70
2023-02-05T01:20:21.863Z,3.60
2023-02-05T01:22:49.363Z,3.60
2023-02-05T01:25:16.804Z,3.60
2023-02-05T01:27:44.018Z,3.70
2023-02-05T01:30:11.975Z,3.70
2023-02-05T01:32:40.584Z,3.80
2023-02-05T01:35:08.793Z,3.80
2023-02-05T01:37:35.574Z,3.80
2023-02-05T01:40:02.513Z,3.80
2023-02-05T01:42:31.813Z,3.80
2023-02-05T01:45:23.677Z,3.80
2023-02-05T01:47:59.331Z,3.90
2023-02-05T01:50:53.980Z,3.80
2023-02-05T01:53:29.998Z,3.80
2023-02-05T01:56:29.840Z,3.70
2023-02-05T01:59:16.500Z,3.80
2023-02-05T02:01:44.475Z,3.80
2023-02-05T02:04:12.996Z,3.60
2023-02-05T02:06:39.802Z,3.40
2023-02-05T02:09:07.463Z,3.40
2023-02-05T02:11:38.154Z,3.40
2023-02-05T02:14:07.353Z,3.60
2023-02-05T02:16:38.100Z,3.70
2023-02-05T02:19:12.813Z,3.60
2023-02-05T02:21:57.106Z,3.70
2023-02-05T02:24:26.757Z,3.80
2023-02-05T02:26:59.442Z,3.80
2023-02-05T02:29:37.544Z,3.70
2023-02-05T02:32:16.600Z,3.70
2023-02-05T02:34:55.508Z,3.90
2023-02-05T02:37:47.526Z,3.70
2023-02-05T02:40:46.404Z,3.80
2023-02-05T02:43:25.070Z,3.80
2023-02-05T02:46:00.134Z,3.70
2023-02-05T02:48:29.432Z,3.70
2023-02-05T02:50:58.700Z,3.70
2023-02-05T02:53:31.002Z,3.60
2023-02-05T02:56:01.338Z,3.50
2023-02-05T02:58:32.957Z,3.40
2023-02-05T03:01:01.991Z,3.50
2023-02-05T03:03:31.847Z,3.50
2023-02-05T03:06:00.228Z,3.50
2023-02-05T03:08:51.206Z,3.50
2023-02-05T03:11:18.036Z,3.70
2023-02-05T03:13:45.365Z,3.60
2023-02-05T03:16:14.439Z,3.60
2023-02-05T03:18:42.640Z,3.60
2023-02-05T03:21:21.370Z,3.60
2023-02-05T03:23:49.372Z,3.60
2023-02-05T03:26:23.261Z,3.60
2023-02-05T03:28:50.476Z,3.60
2023-02-05T03:31:29.519Z,3.70
2023-02-05T03:34:35.760Z,3.70
2023-02-05T03:37:05.642Z,3.70
2023-02-05T03:39:46.029Z,3.60
2023-02-05T03:42:24.093Z,3.50
2023-02-05T03:45:30.133Z,3.50
2023-02-05T03:48:23.198Z,3.50
2023-02-05T03:51:19.054Z,3.50
2023-02-05T03:54:04.307Z,3.50
2023-02-05T03:56:39.251Z,3.30
2023-02-05T03:59:07.087Z,3.20
2023-02-05T04:01:35.376Z,3.30
2023-02-05T04:04:02.285Z,3.30
2023-02-05T04:06:29.508Z,3.30
2023-02-05T04:08:56.685Z,3.40
2023-02-05T04:11:23.486Z,3.40
2023-02-05T04:13:50.306Z,3.40
2023-02-05T04:16:17.229Z,3.50
2023-02-05T04:18:44.014Z,3.50
2023-02-05T04:21:10.829Z,3.60
2023-02-05T04:23:37.606Z,3.70
2023-02-05T04:26:04.599Z,3.70
2023-02-05T04:28:31.461Z,3.60
2023-02-05T04:30:58.267Z,3.50
2023-02-05T04:33:25.115Z,3.50
2023-02-05T04:35:51.936Z,3.30
2023-02-05T04:38:18.724Z,3.30
2023-02-05T04:40:45.925Z,3.40
2023-02-05T04:43:12.972Z,3.20
2023-02-05T04:45:39.886Z,3.20
2023-02-05T04:48:06.760Z,3.20
2023-02-05T04:50:33.858Z,3.20
2023-02-05T04:53:02.288Z,3.10
2023-02-05T04:55:30.712Z,3.00
2023-02-05T04:57:57.662Z,3.00
2023-02-05T05:00:25.120Z,3.00
2023-02-05T05:02:52.327Z,3.10
2023-02-05T05:05:19.545Z,2.90
2023-02-05T05:07:46.374Z,3.00
2023-02-05T05:10:13.225Z,3.00
2023-02-05T05:12:40.222Z,3.10
2023-02-05T05:15:08.111Z,3.10
2023-02-05T05:17:35.631Z,3.00
2023-02-05T05:20:03.417Z,3.10
2023-02-05T05:22:30.247Z,3.00
2023-02-05T05:24:57.026Z,3.00
2023-02-05T05:27:24.362Z,3.00
2023-02-05T05:29:51.245Z,3.00
2023-02-05T05:32:18.139Z,3.00
2023-02-05T05:34:45.365Z,3.00
2023-02-05T05:37:12.135Z,3.00
2023-02-05T05:39:58.222Z,3.00
2023-02-05T05:42:43.720Z,3.00
2023-02-05T05:45:10.600Z,3.00
2023-02-05T05:47:37.561Z,3.20
2023-02-05T05:50:04.759Z,3.30
2023-02-05T05:52:32.600Z,3.20
2023-02-05T05:55:00.251Z,3.20
2023-02-05T05:57:27.170Z,2.90
2023-02-05T05:59:54.330Z,2.90
2023-02-05T06:02:21.554Z,2.90
2023-02-05T06:04:48.475Z,2.90
2023-02-05T06:07:15.643Z,2.90
2023-02-05T06:09:42.858Z,2.90
2023-02-05T06:12:11.680Z,3.00
2023-02-05T06:14:39.151Z,2.90
2023-02-05T06:17:07.365Z,2.90
2023-02-05T06:19:34.202Z,2.90
2023-02-05T06:22:01.030Z,2.90
2023-02-05T06:24:30.799Z,3.00
2023-02-05T06:26:58.160Z,3.00
2023-02-05T06:29:25.059Z,3.10
2023-02-05T06:31:52.497Z,3.10
2023-02-05T06:34:19.767Z,3.20
2023-02-05T06:36:46.729Z,3.20
2023-02-05T06:39:13.684Z,3.30
2023-02-05T06:41:40.859Z,3.40
2023-02-05T06:44:07.696Z,3.50
2023-02-05T06:46:34.821Z,3.20
2023-02-05T06:49:01.790Z,3.30
2023-02-05T06:51:28.589Z,3.30
2023-02-05T06:53:57.257Z,3.30
2023-02-05T06:56:24.608Z,3.40
2023-02-05T06:58:51.924Z,3.60
2023-02-05T07:01:19.200Z,3.70
2023-02-05T07:03:47.718Z,3.80
2023-02-05T07:06:14.558Z,3.80
2023-02-05T07:08:41.296Z,3.90
2023-02-05T07:11:08.054Z,3.90
2023-02-05T07:13:34.963Z,4.00
2023-02-05T07:16:05.881Z,4.10
2023-02-05T07:18:34.312Z,3.90
2023-02-05T07:21:10.148Z,3.90
2023-02-05T07:23:37.205Z,3.90
2023-02-05T07:26:16.041Z,3.90
2023-02-05T07:28:43.508Z,3.90
2023-02-05T07:31:15.388Z,3.80
2023-02-05T07:33:43.231Z,3.70
2023-02-05T07:36:11.696Z,3.70
2023-02-05T07:38:38.505Z,3.80
2023-02-05T07:41:07.309Z,3.70
2023-02-05T07:43:35.537Z,3.70
2023-02-05T07:46:04.983Z,3.60
2023-02-05T07:48:32.175Z,3.70
2023-02-05T07:50:59.216Z,3.60
2023-02-05T07:53:26.429Z,3.70
2023-02-05T07:55:53.656Z,3.60
2023-02-05T07:58:20.650Z,3.80
2023-02-05T08:00:47.797Z,3.70
2023-02-05T08:03:15.060Z,3.90
2023-02-05T08:05:41.847Z,3.90
2023-02-05T08:08:09.930Z,4.00
2023-02-05T08:10:36.667Z,4.00
2023-02-05T08:13:03.552Z,4.10
2023-02-05T08:15:30.375Z,4.20
2023-02-05T08:17:57.164Z,4.00
2023-02-05T08:20:24.002Z,3.80
2023-02-05T08:22:50.809Z,3.60
2023-02-05T08:25:18.126Z,3.20
2023-02-05T08:27:46.210Z,3.10
2023-02-05T08:30:15.929Z,3.00
2023-02-05T08:32:42.758Z,2.90
2023-02-05T08:35:09.597Z,2.80
2023-02-05T08:37:36.430Z,2.80
2023-02-05T08:40:03.390Z,3.00
2023-02-05T08:42:30.266Z,3.50
2023-02-05T08:44:58.626Z,4.00
2023-02-05T08:47:26.586Z,4.60
2023-02-05T08:49:53.590Z,5.10
2023-02-05T08:52:20.574Z,5.40
2023-02-05T08:54:48.192Z,5.60
2023-02-05T08:57:16.674Z,5.70
2023-02-05T08:59:43.728Z,5.30
2023-02-05T09:02:17.185Z,5.10
2023-02-05T09:04:46.623Z,4.90
2023-02-05T09:07:13.404Z,4.70
2023-02-05T09:09:40.321Z,4.40
2023-02-05T09:12:07.701Z,4.30
2023-02-05T09:14:37.605Z,4.20
2023-02-05T09:17:06.085Z,4.20
2023-02-05T09:19:38.168Z,4.10
2023-02-05T09:22:06.465Z,4.00
2023-02-05T09:24:33.903Z,3.70
2023-02-05T09:27:01.247Z,3.80
2023-02-05T09:29:29.920Z,3.60
2023-02-05T09:31:57.527Z,3.00
2023-02-05T09:34:24.356Z,3.10
2023-02-05T09:36:51.606Z,3.10
2023-02-05T09:39:52.363Z,3.40
2023-02-05T09:42:57.632Z,4.00
2023-02-05T09:45:50.693Z,4.50
2023-02-05T09:48:32.716Z,6.10
2023-02-05T09:51:01.142Z,6.40
2023-02-05T09:53:39.736Z,6.80
2023-02-05T09:56:09.218Z,6.50
2023-02-05T09:58:49.260Z,6.50
2023-02-05T10:01:24.200Z,6.10
2023-02-05T10:04:03.415Z,6.10
2023-02-05T10:06:39.436Z,5.80
2023-02-05T10:09:16.333Z,5.60
2023-02-05T10:12:04.844Z,5.60
2023-02-05T10:14:34.890Z,5.70
2023-02-05T10:17:42.763Z,6.10
2023-02-05T10:20:46.522Z,5.80
2023-02-05T10:23:35.297Z,5.60
2023-02-05T10:26:13.499Z,5.30
2023-02-05T10:29:18.851Z,5.40
2023-02-05T10:32:23.278Z,5.20
2023-02-05T10:35:08.064Z,5.10
2023-02-05T10:38:16.992Z,4.90
2023-02-05T10:40:46.720Z,4.80
2023-02-05T10:43:16.633Z,5.20
2023-02-05T10:45:43.975Z,5.80
2023-02-05T10:48:34.170Z,6.50
2023-02-05T10:51:05.209Z,6.80
2023-02-05T10:53:33.408Z,6.90
2023-02-05T10:56:02.605Z,6.50
2023-02-05T10:58:48.266Z,6.10
2023-02-05T11:01:18.665Z,6.30
2023-02-05T11:03:56.788Z,6.50
2023-02-05T11:06:27.575Z,7.80
2023-02-05T11:08:55.122Z,8.60
2023-02-05T11:11:28.636Z,8.70
2023-02-05T11:14:06.124Z,8.20
2023-02-05T11:16:43.105Z,7.80
2023-02-05T11:19:24.137Z,7.30
2023-02-05T11:22:00.249Z,7.20
2023-02-05T11:24:41.143Z,6.40
2023-02-05T11:27:26.985Z,6.20
2023-02-05T11:29:56.034Z,5.80
2023-02-05T11:32:31.575Z,5.60
2023-02-05T11:35:19.543Z,5.50
2023-02-05T11:38:08.154Z,5.30
2023-02-05T11:40:36.735Z,5.10
2023-02-05T11:43:27.036Z,4.90
2023-02-05T11:45:56.747Z,4.90
2023-02-05T11:48:40.604Z,5.00
2023-02-05T11:51:11.473Z,4.90
2023-02-05T11:53:46.808Z,5.00
2023-02-05T11:56:23.278Z,5.20
2023-02-05T11:58:58.547Z,5.10
2023-02-05T12:01:29.188Z,5.50
2023-02-05T12:04:23.824Z,5.60
2023-02-05T12:06:56.410Z,5.80
2023-02-05T12:09:25.267Z,5.80
2023-02-05T12:12:03.568Z,5.70
2023-02-05T12:14:42.936Z,6.30
2023-02-05T12:17:41.458Z,6.80
2023-02-05T12:20:29.706Z,7.10
2023-02-05T12:23:12.274Z,8.10
2023-02-05T12:26:12.414Z,8.40
2023-02-05T12:29:08.614Z,8.50
2023-02-05T12:32:04.782Z,10.80
2023-02-05T12:34:42.208Z,13.30
2023-02-05T12:37:42.402Z,15.90
2023-02-05T12:40:29.102Z,18.40
2023-02-05T12:43:09.231Z,19.10
2023-02-05T12:45:59.688Z,17.80
2023-02-05T12:48:40.074Z,16.90
2023-02-05T12:51:09.995Z,14.90
2023-02-05T12:53:41.981Z,13.20
2023-02-05T12:56:32.695Z,11.50
2023-02-05T12:59:18.630Z,10.30
2023-02-05T13:01:56.961Z,9.40
2023-02-05T13:04:40.427Z,8.20
2023-02-05T13:07:23.920Z,9.30
2023-02-05T13:10:01.717Z,7.40
2023-02-05T13:12:34.513Z,7.00
2023-02-05T13:15:52.465Z,6.80
2023-02-05T13:18:28.537Z,5.90
2023-02-05T13:21:27.682Z,8.30
2023-02-05T13:24:35.455Z,6.30
2023-02-05T13:27:40.761Z,6.10
2023-02-05T13:30:34.177Z,7.00
2023-02-05T13:33:18.884Z,5.60
2023-02-05T13:36:12.567Z,5.50
2023-02-05T13:39:02.693Z,5.20
2023-02-05T13:42:05.736Z,3.70
2023-02-05T13:45:03.038Z,3.20
2023-02-05T13:47:46.630Z,6.30
2023-02-05T13:50:39.020Z,4.70
2023-02-05T13:56:44.765Z,4.70
2023-02-05T13:59:35.904Z,4.80
2023-02-05T14:02:03.474Z,4.80
2023-02-05T14:04:36.089Z,4.80
2023-02-05T14:07:06.984Z,4.90
2023-02-05T14:09:41.001Z,4.90
2023-02-05T14:12:20.993Z,4.80
2023-02-05T14:15:16.481Z,4.80
2023-02-05T14:17:43.256Z,4.70
2023-02-05T14:20:24.776Z,4.70
2023-02-05T14:22:53.631Z,4.60
2023-02-05T14:25:36.387Z,4.50
2023-02-05T14:28:16.474Z,4.50
2023-02-05T14:31:00.566Z,4.50
2023-02-05T14:33:42.228Z,4.60
2023-02-05T14:36:22.384Z,4.70
2023-02-05T14:39:04.931Z,4.90
2023-02-05T14:41:41.077Z,4.80
2023-02-05T14:44:30.379Z,4.90
2023-02-05T14:47:08.573Z,4.60
2023-02-05T14:49:39.748Z,4.40
2023-02-05T14:52:21.135Z,4.40
2023-02-05T14:54:54.520Z,4.30
2023-02-05T14:57:28.992Z,4.30
2023-02-05T15:00:12.060Z,4.10
2023-02-05T15:03:01.074Z,4.00
2023-02-05T15:05:40.050Z,4.20
2023-02-05T15:08:25.867Z,4.10
2023-02-05T15:11:24.962Z,4.10
2023-02-05T15:14:30.774Z,3.90
2023-02-05T15:17:07.471Z,4.10
2023-02-05T15:19:41.275Z,4.00
2023-02-05T15:22:20.244Z,4.10
2023-02-05T15:24:49.263Z,4.00
2023-02-05T15:27:21.702Z,4.20
2023-02-05T15:29:57.465Z,4.20
2023-02-05T15:32:32.057Z,4.20
2023-02-05T15:35:05.223Z,4.10
2023-02-05T15:37:43.249Z,3.90
2023-02-05T15:40:19.316Z,3.90
2023-02-05T15:42:50.695Z,3.90
2023-02-05T15:45:18.495Z,3.90
2023-02-05T15:47:45.448Z,3.90
2023-02-05T15:50:15.925Z,4.00
2023-02-05T15:52:42.950Z,4.00
2023-02-05T15:55:13.380Z,4.00
2023-02-05T15:57:40.565Z,3.90
2023-02-05T16:00:09.879Z,4.00
2023-02-05T16:02:36.952Z,4.00
2023-02-05T16:05:20.025Z,3.90
2023-02-05T16:07:51.808Z,3.80
2023-02-05T16:10:26.080Z,3.80
2023-02-05T16:13:04.630Z,3.90
2023-02-05T16:15:34.912Z,4.00
2023-02-05T16:18:06.619Z,4.00
2023-02-05T16:20:39.085Z,4.00
2023-02-05T16:23:14.442Z,4.00
2023-02-05T16:25:43.410Z,4.00
2023-02-05T16:28:23.643Z,3.90
2023-02-05T16:30:55.067Z,4.00
2023-02-05T16:33:24.974Z,4.00
2023-02-05T16:35:52.773Z,4.10
2023-02-05T16:38:23.329Z,4.10
2023-02-05T16:40:57.261Z,4.20
2023-02-05T16:43:30.343Z,4.20
2023-02-05T16:46:06.699Z,4.20
2023-02-05T16:48:41.712Z,4.20
2023-02-05T16:51:31.773Z,4.20
2023-02-05T16:54:00.777Z,4.30
2023-02-05T16:56:35.946Z,4.30
2023-02-05T16:59:04.765Z,4.20
2023-02-05T17:01:42.865Z,4.30
2023-02-05T17:04:27.905Z,4.30
2023-02-05T17:06:57.903Z,4.30
2023-02-05T17:09:34.885Z,4.00
2023-02-05T17:12:21.934Z,3.80
2023-02-05T17:14:54.627Z,3.80
2023-02-05T17:17:22.009Z,3.90
2023-02-05T17:20:21.506Z,3.80
2023-02-05T17:23:00.424Z,3.70
2023-02-05T17:25:38.142Z,3.70
2023-02-05T17:28:07.254Z,3.60
2023-02-05T17:30:35.050Z,3.60
2023-02-05T17:33:06.408Z,3.70
2023-02-05T17:35:33.877Z,3.60
2023-02-05T17:38:00.704Z,3.60
2023-02-05T17:40:27.714Z,3.60
2023-02-05T17:42:54.845Z,3.60
2023-02-05T17:45:27.372Z,3.60
2023-02-05T17:47:54.178Z,3.60
2023-02-05T17:50:21.880Z,3.50
2023-02-05T17:52:49.528Z,3.50
2023-02-05T17:55:19.058Z,3.50
2023-02-05T17:57:46.457Z,3.60
2023-02-05T18:00:16.796Z,3.60
2023-02-05T18:02:43.656Z,3.70
2023-02-05T18:05:13.417Z,3.60
2023-02-05T18:07:45.250Z,3.60
2023-02-05T18:10:14.124Z,3.90
2023-02-05T18:12:40.996Z,3.70
2023-02-05T18:15:08.780Z,3.70
2023-02-05T18:17:35.585Z,3.70
2023-02-05T18:20:04.339Z,3.70
2023-02-05T18:22:31.719Z,3.60
2023-02-05T18:24:58.914Z,3.50
2023-02-05T18:27:26.110Z,3.50
2023-02-05T18:29:53.293Z,3.70
2023-02-05T18:32:20.473Z,3.60
2023-02-05T18:34:47.258Z,3.50
2023-02-05T18:37:15.178Z,3.50
2023-02-05T18:39:42.308Z,3.50
2023-02-05T18:42:09.575Z,3.60
2023-02-05T18:44:36.374Z,3.60
2023-02-05T18:47:05.108Z,3.60
2023-02-05T18:49:40.198Z,3.50
2023-02-05T18:52:30.480Z,3.60
2023-02-05T18:54:57.651Z,3.60
2023-02-05T18:57:24.498Z,3.60
2023-02-05T18:59:54.072Z,3.60
2023-02-05T19:02:21.437Z,3.60
2023-02-05T19:04:52.112Z,3.50
2023-02-05T19:07:20.572Z,3.50
2023-02-05T19:09:47.347Z,3.50
2023-02-05T19:12:14.570Z,3.40
2023-02-05T19:14:41.857Z,3.40
2023-02-05T19:17:09.206Z,3.40
2023-02-05T19:19:36.144Z,3.40
2023-02-05T19:22:05.966Z,3.40
2023-02-05T19:24:33.066Z,3.40
2023-02-05T19:26:59.990Z,3.30
2023-02-05T19:29:26.975Z,3.20
2023-02-05T19:31:54.457Z,3.30
2023-02-05T19:34:22.310Z,3.30
2023-02-05T19:36:49.603Z,3.20
2023-02-05T19:39:16.685Z,3.20
2023-02-05T19:41:48.337Z,3.20
2023-02-05T19:44:15.373Z,3.20
2023-02-05T19:46:46.671Z,3.20
2023-02-05T19:49:19.401Z,3.10
2023-02-05T19:51:48.147Z,3.20
2023-02-05T19:54:16.098Z,3.30
2023-02-05T19:56:43.857Z,3.50
2023-02-05T19:59:11.177Z,3.30
2023-02-05T20:01:40.593Z,3.30
2023-02-05T20:04:08.958Z,3.40
2023-02-05T20:06:36.126Z,3.40
2023-02-05T20:09:10.710Z,3.40
2023-02-05T20:11:42.485Z,3.40
2023-02-05T20:14:10.546Z,3.40
2023-02-05T20:16:40.190Z,3.40
2023-02-05T20:19:10.174Z,3.50
2023-02-05T20:21:37.966Z,3.30
2023-02-05T20:24:05.605Z,3.40
2023-02-05T20:26:33.555Z,3.40
2023-02-05T20:29:19.591Z,3.40
2023-02-05T20:31:49.528Z,3.40
2023-02-05T20:34:20.321Z,3.40
2023-02-05T20:36:56.056Z,3.30
2023-02-05T20:39:28.792Z,3.30
2023-02-05T20:41:58.479Z,3.20
2023-02-05T20:44:28.647Z,3.20
2023-02-05T20:46:55.959Z,3.30
2023-02-05T20:49:23.573Z,3.30
2023-02-05T20:51:55.556Z,3.40
2023-02-05T20:54:23.249Z,3.30
2023-02-05T20:56:51.731Z,3.20
2023-02-05T20:59:18.665Z,3.30
2023-02-05T21:01:46.001Z,3.30
2023-02-05T21:04:12.942Z,3.30
2023-02-05T21:06:40.851Z,3.40
2023-02-05T21:09:09.103Z,3.30
2023-02-05T21:11:37.275Z,3.10
2023-02-05T21:14:04.130Z,3.10
2023-02-05T21:16:31.429Z,3.10
2023-02-05T21:18:58.411Z,3.10
2023-02-05T21:21:33.500Z,3.10
2023-02-05T21:24:02.790Z,3.00
2023-02-05T21:26:31.360Z,3.00
2023-02-05T21:29:01.428Z,3.00
2023-02-05T21:31:33.935Z,2.80
2023-02-05T21:34:06.219Z,2.80
2023-02-05T21:36:33.793Z,2.90
2023-02-05T21:39:01.036Z,2.80
2023-02-05T21:41:28.290Z,2.70
2023-02-05T21:43:57.574Z,2.70
2023-02-05T21:46:25.943Z,2.90
2023-02-05T21:48:54.839Z,2.80
2023-02-05T21:51:24.626Z,2.80
2023-02-05T21:53:57.174Z,2.80
2023-02-05T21:56:26.123Z,2.70
2023-02-05T21:58:53.000Z,2.50
2023-02-05T22:01:22.363Z,2.40
2023-02-05T22:03:52.267Z,2.20
2023-02-05T22:06:20.545Z,2.20
2023-02-05T22:08:50.521Z,2.30
2023-02-05T22:11:21.301Z,2.30
2023-02-05T22:13:50.096Z,2.50
2023-02-05T22:16:26.807Z,2.30
2023-02-05T22:18:55.524Z,2.30
2023-02-05T22:21:25.532Z,2.20
2023-02-05T22:23:53.931Z,3.30
2023-02-05T22:26:25.661Z,2.20
2023-02-05T22:28:52.849Z,2.40
2023-02-05T22:31:21.161Z,2.40
2023-02-05T22:33:49.605Z,2.30
2023-02-05T22:36:20.344Z,2.40
2023-02-05T22:38:48.474Z,2.40
2023-02-05T22:41:21.293Z,2.50
2023-02-05T22:43:51.498Z,2.50
2023-02-05T22:46:23.922Z,2.30
2023-02-05T22:48:52.400Z,2.20
2023-02-05T22:51:22.729Z,2.20
2023-02-05T22:53:49.540Z,2.10
2023-02-05T22:56:17.841Z,2.10
2023-02-05T22:58:46.811Z,3.40
2023-02-05T23:01:24.446Z,1.90
2023-02-05T23:03:52.145Z,1.80
2023-02-05T23:06:25.197Z,1.80
2023-02-05T23:08:57.955Z,1.60
2023-02-05T23:14:01.153Z,1.60
2023-02-05T23:17:14.512Z,2.50
2023-02-05T23:26:13.016Z,1.40
2023-02-05T23:28:40.066Z,1.60
2023-02-05T23:31:07.378Z,1.80
2023-02-05T23:33:37.604Z,1.50
2023-02-05T23:36:06.067Z,1.40
2023-02-05T23:38:41.560Z,1.20
2023-02-05T23:41:08.929Z,1.30
2023-02-05T23:43:37.056Z,1.40
2023-02-05T23:46:05.738Z,1.50
2023-02-05T23:48:33.891Z,1.40
2023-02-05T23:51:35.569Z,1.30
2023-02-05T23:54:03.600Z,1.20
2023-02-05T23:56:30.588Z,1.20
2023-02-05T23:59:21.977Z,1.20
